createdAt,value
2018-09-12T00:01:38.126Z,22.80
2018-09-12T00:06:43.034Z,22.90
2018-09-12T00:11:48.168Z,23.00
2018-09-12T00:16:53.011Z,23.00
2018-09-12T00:21:57.957Z,22.90
2018-09-12T00:27:02.936Z,22.90
2018-09-12T00:32:08.055Z,22.90
2018-09-12T00:37:13.345Z,22.80
2018-09-12T00:42:18.457Z,22.70
2018-09-12T00:47:23.477Z,22.60
2018-09-12T00:52:28.339Z,22.40
2018-09-12T00:57:33.439Z,22.40
2018-09-12T01:02:38.492Z,22.30
2018-09-12T01:07:43.483Z,22.40
2018-09-12T01:12:48.428Z,22.40
2018-09-12T01:17:53.739Z,22.50
2018-09-12T01:22:58.654Z,22.50
2018-09-12T01:28:03.531Z,22.50
2018-09-12T01:33:08.507Z,22.40
2018-09-12T01:38:13.358Z,22.20
2018-09-12T01:43:18.441Z,22.00
2018-09-12T01:48:23.291Z,21.90
2018-09-12T01:53:28.308Z,22.00
2018-09-12T01:58:33.532Z,21.90
2018-09-12T02:03:38.991Z,21.90
2018-09-12T02:08:43.849Z,22.00
2018-09-12T02:13:48.750Z,21.90
2018-09-12T02:18:53.675Z,21.80
2018-09-12T02:23:58.771Z,21.80
2018-09-12T02:29:03.681Z,21.80
2018-09-12T02:34:29.999Z,21.70
2018-09-12T02:39:40.530Z,21.60
2018-09-12T02:44:53.835Z,21.60
2018-09-12T02:50:00.721Z,21.70
2018-09-12T02:55:06.266Z,21.80
2018-09-12T03:00:12.485Z,21.90
2018-09-12T03:05:17.799Z,22.00
2018-09-12T03:10:23.035Z,22.00
2018-09-12T03:15:28.192Z,22.10
2018-09-12T03:20:33.558Z,22.10
2018-09-12T03:25:38.980Z,22.10
2018-09-12T03:30:44.079Z,22.10
2018-09-12T03:35:49.482Z,22.10
2018-09-12T03:40:54.662Z,22.30
2018-09-12T03:45:59.872Z,22.30
2018-09-12T03:51:05.124Z,22.40
2018-09-12T03:56:10.155Z,22.50
2018-09-12T04:01:15.272Z,22.50
2018-09-12T04:06:20.302Z,22.60
2018-09-12T04:11:25.452Z,22.70
2018-09-12T04:16:30.692Z,22.60
2018-09-12T04:21:35.947Z,22.50
2018-09-12T04:26:41.190Z,22.40
2018-09-12T04:31:46.211Z,22.50
2018-09-12T04:36:51.599Z,22.40
2018-09-12T04:41:56.676Z,22.60
2018-09-12T04:47:02.042Z,22.50
2018-09-12T04:52:07.332Z,22.60
2018-09-12T04:57:12.501Z,22.60
2018-09-12T05:02:18.082Z,22.60
2018-09-12T05:07:23.316Z,22.60
2018-09-12T05:12:28.473Z,22.60
2018-09-12T05:17:33.592Z,22.50
2018-09-12T05:22:39.032Z,22.40
2018-09-12T05:27:44.289Z,22.40
2018-09-12T05:32:49.481Z,22.40
2018-09-12T05:37:54.811Z,22.30
2018-09-12T05:43:00.033Z,22.30
2018-09-12T05:48:06.932Z,22.10
2018-09-12T05:53:16.353Z,22.20
2018-09-12T05:58:22.360Z,22.30
2018-09-12T06:03:27.471Z,22.50
2018-09-12T06:08:32.912Z,22.40
2018-09-12T06:13:38.698Z,22.50
2018-09-12T06:18:43.996Z,22.50
2018-09-12T06:23:49.217Z,22.70
2018-09-12T06:28:54.470Z,22.90
2018-09-12T06:33:59.588Z,23.10
2018-09-12T06:39:07.284Z,23.20
2018-09-12T06:44:12.245Z,23.10
2018-09-12T06:49:17.455Z,23.10
2018-09-12T06:54:22.638Z,23.30
2018-09-12T06:59:28.841Z,23.50
2018-09-12T07:04:35.364Z,23.70
2018-09-12T07:09:40.727Z,23.90
2018-09-12T07:14:46.098Z,23.90
2018-09-12T07:19:51.157Z,23.90
2018-09-12T07:24:56.192Z,24.00
2018-09-12T07:30:01.567Z,24.10
2018-09-12T07:35:07.351Z,24.40
2018-09-12T07:40:12.555Z,24.70
2018-09-12T07:45:17.785Z,24.90
2018-09-12T07:50:22.894Z,25.20
2018-09-12T07:55:28.433Z,25.10
2018-09-12T08:00:33.490Z,25.10
2018-09-12T08:05:38.691Z,25.20
2018-09-12T08:10:43.929Z,25.50
2018-09-12T08:15:49.271Z,25.90
2018-09-12T08:20:58.464Z,26.10
2018-09-12T08:26:05.264Z,26.20
2018-09-12T08:31:10.801Z,26.40
2018-09-12T08:36:16.088Z,26.40
2018-09-12T08:41:21.328Z,26.50
2018-09-12T08:46:26.868Z,26.40
2018-09-12T08:51:32.240Z,26.50
2018-09-12T08:56:37.426Z,26.70
2018-09-12T09:01:42.928Z,27.00
2018-09-12T09:06:48.238Z,26.70
2018-09-12T09:11:53.349Z,26.60
2018-09-12T09:16:59.436Z,26.80
2018-09-12T09:22:04.502Z,27.10
2018-09-12T09:27:12.993Z,27.20
2018-09-12T09:32:18.975Z,27.10
2018-09-12T09:37:24.121Z,27.10
2018-09-12T09:42:29.794Z,27.20
2018-09-12T09:47:35.051Z,27.30
2018-09-12T09:52:40.522Z,26.80
2018-09-12T09:57:45.782Z,26.30
2018-09-12T10:02:55.997Z,26.10
2018-09-12T10:08:06.221Z,26.30
2018-09-12T10:13:11.224Z,26.70
2018-09-12T10:18:16.545Z,26.50
2018-09-12T10:23:24.031Z,26.70
2018-09-12T10:28:46.128Z,27.10
2018-09-12T10:33:52.446Z,26.70
2018-09-12T10:38:59.578Z,26.60
2018-09-12T10:44:05.216Z,26.80
2018-09-12T10:49:10.500Z,26.80
2018-09-12T10:54:15.730Z,27.10
2018-09-12T10:59:21.019Z,27.40
2018-09-12T11:04:27.533Z,28.20
2018-09-12T11:09:33.080Z,29.40
2018-09-12T11:14:39.173Z,29.10
2018-09-12T11:19:44.360Z,28.00
2018-09-12T11:24:49.404Z,27.90
2018-09-12T11:29:54.594Z,28.30
2018-09-12T11:34:59.978Z,29.20
2018-09-12T11:40:05.298Z,29.20
2018-09-12T11:45:10.531Z,28.70
2018-09-12T11:50:15.659Z,29.00
2018-09-12T11:55:20.977Z,30.00
2018-09-12T12:00:26.595Z,29.60
2018-09-12T12:05:31.760Z,29.40
2018-09-12T12:10:37.142Z,29.10
2018-09-12T12:15:42.302Z,29.00
2018-09-12T12:20:47.883Z,29.70
2018-09-12T12:25:53.274Z,30.00
2018-09-12T12:30:58.356Z,28.90
2018-09-12T12:36:03.371Z,28.90
2018-09-12T12:41:08.991Z,28.80
2018-09-12T12:46:14.380Z,28.20
2018-09-12T12:51:19.652Z,27.80
2018-09-12T12:56:25.086Z,28.80
2018-09-12T13:01:30.468Z,28.70
2018-09-12T13:06:35.569Z,28.40
2018-09-12T13:11:41.594Z,28.30
2018-09-12T13:16:47.202Z,30.10
2018-09-12T13:21:52.601Z,31.00
2018-09-12T13:26:58.025Z,31.00
2018-09-12T13:32:03.607Z,30.20
2018-09-12T13:37:08.872Z,30.10
2018-09-12T13:42:14.622Z,30.50
2018-09-12T13:47:21.935Z,31.70
2018-09-12T13:52:27.028Z,31.20
2018-09-12T13:57:34.592Z,31.80
2018-09-12T14:02:40.125Z,32.20
2018-09-12T14:07:45.454Z,32.30
2018-09-12T14:12:50.842Z,32.30
2018-09-12T14:17:56.118Z,32.40
2018-09-12T14:23:01.398Z,32.90
2018-09-12T14:28:07.936Z,33.00
2018-09-12T14:33:14.778Z,33.20
2018-09-12T14:38:20.544Z,33.10
2018-09-12T14:43:30.897Z,32.80
2018-09-12T14:48:36.259Z,33.00
2018-09-12T14:53:41.700Z,33.30
2018-09-12T14:58:46.879Z,32.90
2018-09-12T15:03:56.088Z,32.40
2018-09-12T15:09:01.642Z,32.90
2018-09-12T15:14:06.923Z,32.20
2018-09-12T15:19:13.514Z,32.30
2018-09-12T15:24:18.561Z,32.40
2018-09-12T15:29:25.012Z,32.50
2018-09-12T15:34:30.345Z,31.70
2018-09-12T15:39:36.125Z,30.40
2018-09-12T15:44:41.648Z,28.80
2018-09-12T15:49:46.598Z,28.10
2018-09-12T15:54:51.847Z,28.10
2018-09-12T15:59:57.269Z,27.90
2018-09-12T16:05:02.343Z,27.60
2018-09-12T16:10:07.588Z,27.40
2018-09-12T16:15:12.900Z,27.50
2018-09-12T16:20:19.965Z,27.50
2018-09-12T16:25:25.348Z,27.40
2018-09-12T16:30:30.569Z,27.40
2018-09-12T16:35:35.797Z,27.30
2018-09-12T16:40:43.576Z,27.10
2018-09-12T16:45:48.734Z,27.00
2018-09-12T16:50:53.923Z,27.00
2018-09-12T16:55:59.440Z,26.90
2018-09-12T17:01:05.048Z,26.80
2018-09-12T17:06:10.810Z,26.80
2018-09-12T17:11:15.703Z,26.80
2018-09-12T17:16:21.296Z,26.60
2018-09-12T17:21:27.392Z,26.00
2018-09-12T17:26:32.786Z,24.80
2018-09-12T17:31:38.220Z,23.70
2018-09-12T17:36:43.229Z,23.20
2018-09-12T17:41:48.368Z,22.60
2018-09-12T17:46:53.653Z,22.00
2018-09-12T17:51:58.921Z,21.90
2018-09-12T17:57:04.547Z,21.70
2018-09-12T18:02:09.425Z,21.60
2018-09-12T18:07:14.710Z,21.70
2018-09-12T18:12:19.901Z,21.80
2018-09-12T18:17:25.074Z,22.00
2018-09-12T18:22:30.303Z,22.00
2018-09-12T18:27:35.588Z,22.10
2018-09-12T18:32:41.079Z,22.10
2018-09-12T18:37:46.356Z,22.10
2018-09-12T18:42:52.789Z,22.20
2018-09-12T18:47:58.151Z,22.00
2018-09-12T18:53:03.432Z,22.00
2018-09-12T18:58:08.711Z,22.00
2018-09-12T19:03:17.115Z,21.90
2018-09-12T19:08:23.155Z,22.00
2018-09-12T19:13:28.340Z,21.90
2018-09-12T19:18:34.406Z,22.00
2018-09-12T19:23:44.906Z,22.10
2018-09-12T19:28:51.152Z,22.00
2018-09-12T19:33:56.365Z,22.10
2018-09-12T19:39:01.598Z,22.20
2018-09-12T19:44:06.943Z,22.20
2018-09-12T19:49:12.346Z,22.20
2018-09-12T19:54:18.110Z,22.40
2018-09-12T19:59:26.465Z,22.30
2018-09-12T20:04:31.896Z,22.50
2018-09-12T20:09:37.287Z,22.50
2018-09-12T20:14:42.401Z,22.50
2018-09-12T20:19:47.954Z,22.60
2018-09-12T20:24:53.249Z,22.70
2018-09-12T20:29:58.603Z,22.60
2018-09-12T20:35:04.772Z,22.40
2018-09-12T20:40:10.241Z,22.40
2018-09-12T20:45:15.388Z,22.60
2018-09-12T20:50:20.359Z,22.60
2018-09-12T20:55:25.433Z,22.50
2018-09-12T21:00:30.673Z,22.40
2018-09-12T21:05:36.075Z,22.40
2018-09-12T21:10:41.532Z,22.40
2018-09-12T21:15:46.756Z,22.40
2018-09-12T21:20:53.008Z,22.30
2018-09-12T21:25:58.335Z,22.10
2018-09-12T21:31:03.434Z,22.20
2018-09-12T21:36:08.635Z,22.20
2018-09-12T21:41:14.435Z,22.00
2018-09-12T21:46:20.294Z,22.10
2018-09-12T21:51:25.929Z,22.20
2018-09-12T21:56:31.384Z,22.30
2018-09-12T22:01:50.226Z,22.40
2018-09-12T22:06:55.462Z,22.40
2018-09-12T22:12:01.148Z,22.40
2018-09-12T22:17:07.517Z,22.50
2018-09-12T22:22:14.293Z,22.50
2018-09-12T22:27:20.237Z,22.20
2018-09-12T22:32:25.434Z,22.00
2018-09-12T22:37:31.540Z,21.80
2018-09-12T22:42:36.670Z,21.90
2018-09-12T22:47:42.771Z,21.90
2018-09-12T22:52:48.598Z,21.80
2018-09-12T22:57:54.354Z,21.60
2018-09-12T23:03:00.984Z,21.60
2018-09-12T23:08:09.145Z,21.60
2018-09-12T23:13:14.795Z,21.50
2018-09-12T23:18:23.104Z,21.50
2018-09-12T23:23:30.535Z,21.60
2018-09-12T23:28:36.056Z,21.70
2018-09-12T23:33:44.084Z,21.70
2018-09-12T23:38:49.937Z,21.60
2018-09-12T23:43:55.376Z,21.70
2018-09-12T23:49:01.211Z,21.70
2018-09-12T23:54:06.645Z,21.70
2018-09-12T23:59:11.835Z,21.70
